メインページ
METAR-TAF:

METAR-TAF

空港 :

イルクーツク国際空港

イルクーツク, ロシア

緯度: 52-16N, 経度: 104-19E, 海抜: 513m

現時点の気象観測

当レポートは16分前の03:00(UTC)に作成
西の風 12kt、西/南西から北西の間で変化する
気温 8°C
湿度 34%
気圧 1019 hPa
視程10km以上
高度4600ftの雲は散在している, 積乱雲.

METAR: UIII 210300Z 28006MPS 250V320 9999 SCT046CB 08/M07 Q1019 R30/60D NOSIG RMK QFE720/0960

時間: 11:16 (03:16 UTC)

予報

当レポートは1時間16分前の02:00(UTC)に作成
予報は21日の 03時(UTC)から 22日の 03時(UTC)まで有効
西/北西の風 16kt
視程10km以上
高度2000ftの雲は散在している, 積乱雲.
21日の 06時(UTC)から 21日の 12時(UTC)まで一時的に
西/北西の風 19kt、最大29ktの突風を伴う
視程: 2000m
にわか雪
21日の 12時(UTC)から 21日の 14時(UTC)まで徐々に
西/北西の風 6kt

TAF: UIII 210200Z 2103/2203 30008MPS 9999 SCT020CB TEMPO 2106/2112 30010G15MPS 2000 SHSN BECMG 2112/2114 30003MPS

4,000以上の空港の気象観測と天気予報(METAR報とTAF報)

利用可能な観測所は地図上に黄色い丸と赤い丸で示す。

丸の上にカーソルを重ねると観測所名を参照できる。

次にクリックすると気象観測と天気予報を参照できる。

マップの切り替え:黒色「×」印の緑ボタンをクリックして拡大、「-」印の緑ボタンをクリックして縮小、緑色の三角印をクリックして隣りの地図に切り替え


METAR-TAF: